Weather at Nairobi Wilson Airport

Public forecast

Using degrees Celsius for public forecast. Weather courtesy of forecast.io.

Current aviation weather report (METAR) for Nairobi Wilson Airport

Report is more than 6 hours old.

2024/06/24 06:00 (retrieved 1 day ago)

HKNW 240600Z 00000KT 9999 BKN020 15/12 Q1027

Closest aviation forecast (TAF) to Nairobi Wilson Airport

Forecast is more than 12 hours old.

Closest forecast is Jomo Kenyatta International Airport, 6.8 nm (12.6 km) E.

2024/06/24 18:27 (retrieved 13 hours ago)

TAF TAF HKJK 241700Z 2418/2524 14005KT CAVOK BECMG 2501/2504 24005KT 9999 SCT008 BKN015 BECMG 2508/2511 16010KT BKN026 BECMG 2520/2523 VRB05KT SCT020